Time;durP1;ratioP1;P1;durP2;ratioP2;P2;SDS_P1;SDS_P2;PMS_P1;PMS_P2;Temp;Humidity;BMP_temperature;BMP_pressure;BME280_temperature;BME280_humidity;BME280_pressure;Samples;Min_cycle;Max_cycle;Signal;HPM_P1;HPM_P2
2022/08/30 00:03:13;;;;;;;6.53;5.20;;;;;;;22.84;53.92;98944.25;7034935;28;20202;-80
2022/08/30 00:06:36;;;;;;;7.47;5.27;;;;;;;22.77;53.96;98951.97;7034546;28;20686;-80
2022/08/30 00:09:58;;;;;;;10.67;6.07;;;;;;;22.72;54.22;98963.78;7034217;28;20201;-81
2022/08/30 00:13:20;;;;;;;6.77;6.07;;;;;;;22.06;56.10;98958.69;7034329;28;20214;-80
2022/08/30 00:16:42;;;;;;;6.57;5.73;;;;;;;22.43;54.76;98939.97;7033974;28;20323;-80
2022/08/30 00:20:05;;;;;;;6.60;5.50;;;;;;;22.51;54.90;98948.47;7034014;28;20206;-81
2022/08/30 00:23:28;;;;;;;9.47;6.00;;;;;;;22.43;54.57;98960.00;7033557;28;20272;-79
2022/08/30 00:26:50;;;;;;;10.83;5.50;;;;;;;22.12;55.86;98961.13;7032950;28;20236;-81
2022/08/30 00:30:13;;;;;;;6.30;5.70;;;;;;;21.73;56.16;98907.84;7033549;28;20209;-80
2022/08/30 00:33:36;;;;;;;8.20;5.50;;;;;;;22.14;55.66;98953.41;7032013;28;20243;-80
2022/08/30 00:36:59;;;;;;;6.83;5.93;;;;;;;22.21;55.76;98953.16;7032764;28;20237;-80
2022/08/30 00:40:22;;;;;;;6.90;5.80;;;;;;;22.41;54.26;98956.69;7032839;28;20349;-81
2022/08/30 00:43:44;;;;;;;7.77;5.40;;;;;;;22.28;54.33;98954.53;7032852;28;20335;-80
2022/08/30 00:47:06;;;;;;;7.30;5.40;;;;;;;22.12;55.13;98950.13;7032916;28;20716;-79
2022/08/30 00:50:31;;;;;;;6.03;5.50;;;;;;;21.83;55.79;98953.72;7032169;28;20274;-81
2022/08/30 00:53:55;;;;;;;10.87;5.50;;;;;;;22.13;54.81;98968.25;7032096;28;20212;-80
2022/08/30 00:57:18;;;;;;;9.47;5.47;;;;;;;21.84;55.78;98963.59;7032154;28;20229;-80
2022/08/30 01:00:40;;;;;;;7.07;5.67;;;;;;;21.64;56.82;98967.13;7032771;28;20205;-81
2022/08/30 01:04:02;;;;;;;6.47;5.87;;;;;;;21.51;55.81;98893.56;7032193;28;20303;-81
2022/08/30 01:07:24;;;;;;;8.43;5.60;;;;;;;21.91;55.83;98969.63;7031357;28;20618;-80
2022/08/30 01:10:45;;;;;;;8.00;5.80;;;;;;;21.60;55.77;98963.25;7031422;28;20208;-81
2022/08/30 01:14:10;;;;;;;7.67;5.40;;;;;;;21.69;55.94;98961.66;7033467;28;20225;-81
2022/08/30 01:17:31;;;;;;;7.23;5.67;;;;;;;21.78;56.10;98968.25;7036207;28;20225;-81
2022/08/30 01:20:59;;;;;;;7.57;5.57;;;;;;;21.74;56.37;98974.56;7035692;28;20343;-80
2022/08/30 01:24:22;;;;;;;6.83;5.77;;;;;;;21.71;55.96;98975.13;7036082;28;20229;-80
2022/08/30 01:27:47;;;;;;;7.50;5.80;;;;;;;21.51;56.67;98967.66;7035529;28;20279;-80
2022/08/30 01:31:09;;;;;;;7.10;5.37;;;;;;;21.62;55.99;98972.06;7033928;28;20186;-79
2022/08/30 01:34:31;;;;;;;9.30;5.90;;;;;;;21.27;57.25;98974.72;7035578;28;20715;-80
2022/08/30 01:37:53;;;;;;;9.27;6.30;;;;;;;21.56;56.17;98961.34;7035439;28;20799;-80
2022/08/30 01:41:18;;;;;;;6.40;5.80;;;;;;;21.75;54.88;98968.81;7035350;28;20254;-80
2022/08/30 01:44:40;;;;;;;9.20;6.20;;;;;;;21.58;55.48;98965.47;7035084;28;20703;-80
2022/08/30 01:48:01;;;;;;;7.57;5.90;;;;;;;21.10;57.18;98956.00;7034896;28;20730;-81
2022/08/30 01:51:24;;;;;;;6.73;5.60;;;;;;;21.37;56.83;98958.25;7035377;28;20208;-80
2022/08/30 01:54:46;;;;;;;6.27;5.67;;;;;;;21.31;56.54;98950.31;7034720;28;20232;-80
2022/08/30 01:58:09;;;;;;;8.13;5.90;;;;;;;21.30;56.77;98974.16;7035159;28;20228;-80
2022/08/30 02:01:38;;;;;;;7.27;6.10;;;;;;;21.28;56.25;98976.34;7036417;28;20335;-80
2022/08/30 02:04:59;;;;;;;6.97;6.00;;;;;;;20.67;58.18;98942.59;7036547;28;20231;-80
2022/08/30 02:08:21;;;;;;;7.07;6.00;;;;;;;20.87;57.44;98959.16;7036440;28;20208;-81
2022/08/30 02:11:43;;;;;;;8.63;5.80;;;;;;;21.08;56.99;98965.31;7036476;28;20337;-81
2022/08/30 02:15:08;;;;;;;8.17;5.43;;;;;;;21.18;56.73;98981.81;7037874;28;20634;-80
2022/08/30 02:18:33;;;;;;;7.27;6.30;;;;;;;20.98;57.13;98974.59;7036959;28;20220;-80
2022/08/30 02:21:55;;;;;;;9.80;6.40;;;;;;;20.81;57.67;98969.25;7037674;28;20201;-81
2022/08/30 02:25:16;;;;;;;7.80;6.17;;;;;;;21.06;57.63;98977.66;7038013;28;20713;-80
2022/08/30 02:28:38;;;;;;;8.03;6.17;;;;;;;21.08;56.85;98975.47;7038118;28;20288;-80
2022/08/30 02:32:01;;;;;;;8.80;6.60;;;;;;;20.43;58.36;98944.97;7038338;28;20670;-80
2022/08/30 02:35:22;;;;;;;8.73;6.73;;;;;;;20.64;58.57;98954.91;7040171;28;20294;-80
2022/08/30 02:38:45;;;;;;;7.87;6.30;;;;;;;20.82;57.76;98948.19;7043375;28;20205;-80
2022/08/30 02:42:06;;;;;;;7.23;6.23;;;;;;;20.70;57.60;98934.69;7051401;28;20207;-80
2022/08/30 02:45:28;;;;;;;9.67;5.83;;;;;;;21.09;56.72;98963.41;7051508;28;20224;-80
2022/08/30 02:48:51;;;;;;;10.33;6.37;;;;;;;20.89;57.03;98954.25;7033331;28;20193;-81
2022/08/30 02:52:12;;;;;;;7.63;6.20;;;;;;;20.58;57.57;98950.50;7034787;28;20205;-80
2022/08/30 02:55:34;;;;;;;9.23;6.50;;;;;;;20.90;57.30;98964.97;7033375;28;20288;-80
2022/08/30 02:58:56;;;;;;;11.40;6.47;;;;;;;20.83;57.22;98956.13;7032072;28;20211;-79
2022/08/30 03:02:18;;;;;;;9.80;7.27;;;;;;;20.33;58.11;98960.50;7028268;28;20301;-80
2022/08/30 03:05:41;;;;;;;7.17;6.27;;;;;;;20.17;59.28;98966.97;7003742;28;20320;-80
2022/08/30 03:09:02;;;;;;;8.37;6.37;;;;;;;20.46;58.95;98962.78;7005394;28;20202;-81
2022/08/30 03:12:25;;;;;;;8.20;6.40;;;;;;;20.51;57.69;98943.66;7006716;28;20236;-80
2022/08/30 03:15:49;;;;;;;6.47;5.70;;;;;;;20.82;56.90;98954.47;7007409;28;20255;-81
2022/08/30 03:19:10;;;;;;;10.27;6.93;;;;;;;19.79;57.45;98820.22;7004673;28;20212;-80
2022/08/30 03:22:33;;;;;;;8.87;7.60;;;;;;;19.39;60.66;98940.22;7005052;28;20237;-80
2022/08/30 03:25:56;;;;;;;10.40;7.43;;;;;;;19.11;62.03;98934.16;7004817;28;20225;-80
2022/08/30 03:29:17;;;;;;;8.20;6.97;;;;;;;19.84;61.17;98935.19;7003739;28;20225;-80
2022/08/30 03:32:40;;;;;;;8.03;6.43;;;;;;;20.08;59.58;98939.25;7003015;28;20202;-80
2022/08/30 03:36:01;;;;;;;8.63;6.77;;;;;;;20.05;59.80;98933.44;7003265;28;20276;-80
2022/08/30 03:39:25;;;;;;;8.23;7.10;;;;;;;20.10;59.84;98930.78;7003021;28;20197;-80
2022/08/30 03:42:47;;;;;;;9.63;6.70;;;;;;;20.27;58.74;98935.00;7003687;28;20209;-81
2022/08/30 03:46:11;;;;;;;9.93;6.73;;;;;;;20.55;57.92;98931.03;7003947;28;20271;-80
2022/08/30 03:49:32;;;;;;;8.07;6.30;;;;;;;20.54;56.86;98922.03;7002099;28;20245;-80
2022/08/30 03:52:54;;;;;;;9.03;6.43;;;;;;;20.36;58.06;98921.63;7002700;28;20242;-80
2022/08/30 03:56:18;;;;;;;9.40;6.70;;;;;;;20.37;57.93;98928.75;7001967;28;20290;-80
2022/08/30 03:59:40;;;;;;;7.60;6.67;;;;;;;20.03;59.02;98935.59;7001765;28;20236;-80
2022/08/30 04:03:01;;;;;;;8.00;6.83;;;;;;;20.40;58.17;98933.72;7003577;28;20681;-80
2022/08/30 04:06:23;;;;;;;7.90;6.63;;;;;;;20.43;57.77;98923.03;7000703;28;20226;-80
2022/08/30 04:09:45;;;;;;;8.10;6.30;;;;;;;20.26;58.63;98943.47;7000287;28;20684;-80
2022/08/30 04:13:08;;;;;;;8.60;6.63;;;;;;;20.12;58.77;98939.53;7002196;28;20242;-81
2022/08/30 04:16:29;;;;;;;7.90;7.13;;;;;;;19.84;59.82;98932.47;7002454;28;20230;-80
2022/08/30 04:19:51;;;;;;;9.23;7.37;;;;;;;19.86;59.70;98946.69;7004249;28;20283;-80
2022/08/30 04:23:12;;;;;;;7.80;6.80;;;;;;;19.75;60.20;98953.16;7007382;28;20209;-81
2022/08/30 04:26:34;;;;;;;7.73;6.87;;;;;;;19.68;59.93;98925.19;7006693;28;20630;-81
2022/08/30 04:29:58;;;;;;;7.37;6.67;;;;;;;20.20;59.15;98939.03;7004098;28;20204;-81
2022/08/30 04:33:21;;;;;;;8.03;6.43;;;;;;;20.46;58.32;98944.41;7004242;28;20198;-80
2022/08/30 04:36:43;;;;;;;8.10;7.30;;;;;;;19.61;59.74;98942.91;7005757;28;20690;-80
2022/08/30 04:40:05;;;;;;;9.23;6.73;;;;;;;19.98;59.54;98952.00;7004622;28;20295;-81
2022/08/30 04:43:27;;;;;;;7.50;6.40;;;;;;;20.04;58.83;98937.28;7004492;28;20836;-80
2022/08/30 04:46:50;;;;;;;10.40;6.63;;;;;;;20.21;57.59;98948.91;7004084;28;20722;-80
2022/08/30 04:50:14;;;;;;;8.57;6.90;;;;;;;20.11;58.04;98946.91;7007240;28;20201;-80
2022/08/30 04:53:36;;;;;;;11.27;7.57;;;;;;;19.63;59.98;98963.44;7010086;28;20675;-80
2022/08/30 04:56:58;;;;;;;9.60;7.40;;;;;;;19.72;59.72;98948.22;7010972;28;20351;-80
2022/08/30 05:00:20;;;;;;;9.87;6.77;;;;;;;20.26;58.14;98971.69;7008902;28;20685;-81
2022/08/30 05:03:43;;;;;;;8.33;6.13;;;;;;;20.32;57.56;98978.00;7029047;28;20236;-81
2022/08/30 05:07:04;;;;;;;8.83;7.20;;;;;;;19.77;58.75;98983.00;7040854;28;20252;-80
2022/08/30 05:10:27;;;;;;;9.47;7.33;;;;;;;19.79;59.68;98978.09;7028532;28;20655;-81
2022/08/30 05:13:49;;;;;;;8.00;7.17;;;;;;;19.97;59.06;98964.84;7031039;28;20242;-81
2022/08/30 05:17:11;;;;;;;10.20;6.47;;;;;;;20.31;57.62;98973.63;7019291;28;20225;-81
2022/08/30 05:20:34;;;;;;;9.30;6.87;;;;;;;20.43;57.69;98998.91;7018740;28;20202;-81
2022/08/30 05:23:57;;;;;;;7.67;6.23;;;;;;;20.51;57.12;98991.00;7014708;28;20201;-81
2022/08/30 05:27:18;;;;;;;9.50;6.63;;;;;;;20.52;56.55;98997.34;7037887;28;20251;-79
2022/08/30 05:30:40;;;;;;;9.57;6.90;;;;;;;20.39;57.52;98995.06;7038368;28;20278;-80
2022/08/30 05:34:02;;;;;;;7.80;6.90;;;;;;;20.32;57.88;98988.97;7038722;28;20673;-79
2022/08/30 05:37:25;;;;;;;13.27;7.60;;;;;;;20.23;58.23;99001.50;7042087;28;20225;-80
2022/08/30 05:40:46;;;;;;;8.47;6.40;;;;;;;20.47;57.57;98959.78;7048876;28;20213;-80
2022/08/30 05:44:09;;;;;;;8.57;6.47;;;;;;;21.33;55.50;99005.72;7037397;28;20313;-79
2022/08/30 05:47:30;;;;;;;9.73;6.67;;;;;;;21.70;54.73;99001.75;7039410;28;20268;-79
2022/08/30 05:51:01;;;;;;;6.13;5.63;;;;;;;22.40;52.76;99001.78;7033578;28;20198;-80
2022/08/30 05:54:24;;;;;;;8.67;6.10;;;;;;;22.70;51.86;99007.25;7047251;28;20299;-80
2022/08/30 05:57:46;;;;;;;7.77;6.07;;;;;;;22.77;51.69;99006.97;7027408;28;20218;-79
2022/08/30 06:01:08;;;;;;;8.13;6.27;;;;;;;23.15;50.29;98982.38;7006956;28;20205;-79
2022/08/30 06:04:30;;;;;;;9.67;6.10;;;;;;;23.24;50.72;98979.88;7011153;28;20226;-79
2022/08/30 06:07:52;;;;;;;9.37;5.73;;;;;;;23.00;50.22;98902.66;7009414;28;20586;-81
2022/08/30 06:11:18;;;;;;;11.07;6.27;;;;;;;23.07;51.78;98969.19;7008303;28;20202;-79
2022/08/30 06:14:39;;;;;;;7.90;6.60;;;;;;;23.74;50.19;98985.09;7008024;28;20308;-80
2022/08/30 06:18:01;;;;;;;8.87;5.93;;;;;;;23.39;50.12;98993.56;7006215;28;20233;-79
2022/08/30 06:21:24;;;;;;;7.60;5.53;;;;;;;23.18;51.35;98970.81;7022258;28;20223;-80
2022/08/30 06:24:46;;;;;;;6.60;5.83;;;;;;;23.64;50.50;98996.16;7034993;28;20215;-80
2022/08/30 06:28:10;;;;;;;8.17;5.63;;;;;;;23.94;49.46;98985.81;7033893;28;20202;-80
2022/08/30 06:31:32;;;;;;;8.00;5.50;;;;;;;24.86;47.91;98993.81;7033367;28;20200;-79
2022/08/30 06:34:53;;;;;;;7.60;6.23;;;;;;;24.72;48.34;98992.84;7033923;28;20803;-80
2022/08/30 06:38:15;;;;;;;5.80;4.97;;;;;;;25.60;45.71;98987.66;7033545;28;20228;-80
2022/08/30 06:41:39;;;;;;;5.80;5.17;;;;;;;25.43;45.11;98921.06;7033918;28;20208;-80
2022/08/30 06:45:03;;;;;;;6.10;5.50;;;;;;;24.78;46.46;98922.72;7033787;28;20581;-80
2022/08/30 06:48:24;;;;;;;6.87;5.30;;;;;;;24.56;47.15;98916.88;7033238;28;20261;-80
2022/08/30 06:51:46;;;;;;;6.27;5.67;;;;;;;25.37;45.72;98975.53;7033851;28;20202;-80
2022/08/30 06:55:08;;;;;;;7.23;5.13;;;;;;;26.35;43.86;98969.88;7032621;28;20669;-80
2022/08/30 06:58:31;;;;;;;9.97;5.43;;;;;;;26.49;43.56;98960.50;7031957;28;20225;-80
2022/08/30 07:01:56;;;;;;;6.53;5.37;;;;;;;26.76;42.35;98965.28;7032609;28;20296;-80
2022/08/30 07:05:20;;;;;;;5.53;5.03;;;;;;;26.40;44.30;98959.56;7031897;28;20229;-80
2022/08/30 07:08:42;;;;;;;5.93;5.20;;;;;;;25.85;45.87;98960.47;7031472;28;20219;-80
2022/08/30 07:12:05;;;;;;;6.03;5.40;;;;;;;25.92;45.58;98972.00;7031708;28;20201;-80
2022/08/30 07:15:27;;;;;;;6.90;5.20;;;;;;;26.41;44.16;98932.72;7031759;28;20314;-80
2022/08/30 07:18:57;;;;;;;5.37;4.87;;;;;;;27.55;42.23;98942.63;7031447;28;20293;-80
2022/08/30 07:22:19;;;;;;;7.90;5.07;;;;;;;27.94;41.16;98951.13;7031608;28;20264;-80
2022/08/30 07:25:41;;;;;;;6.37;4.63;;;;;;;28.27;41.67;98961.69;7031721;28;20712;-80
2022/08/30 07:29:03;;;;;;;5.53;4.93;;;;;;;28.19;40.23;98961.63;7031568;28;20209;-81
2022/08/30 07:32:25;;;;;;;6.93;4.60;;;;;;;28.24;39.53;98970.63;7027739;28;20207;-80
2022/08/30 07:35:49;;;;;;;6.73;5.10;;;;;;;28.82;38.18;98968.53;7032030;28;20232;-80
2022/08/30 07:39:10;;;;;;;6.93;5.10;;;;;;;28.09;39.67;98959.09;7031643;28;20278;-80
2022/08/30 07:42:32;;;;;;;6.43;4.63;;;;;;;29.01;37.46;98976.66;7032506;28;20245;-79
2022/08/30 07:45:54;;;;;;;6.50;4.63;;;;;;;29.42;37.33;98964.03;7039488;28;20866;-81
2022/08/30 07:49:16;;;;;;;6.40;4.40;;;;;;;29.86;36.49;98966.59;7031139;28;20223;-81
2022/08/30 07:52:39;;;;;;;5.47;4.87;;;;;;;29.45;35.88;98968.97;7030804;28;20486;-81
2022/08/30 07:56:01;;;;;;;5.57;4.83;;;;;;;28.42;38.39;98972.41;7006773;28;20739;-80
2022/08/30 07:59:23;;;;;;;7.07;4.87;;;;;;;29.00;37.89;98980.56;7003926;28;20299;-81
2022/08/30 08:02:44;;;;;;;5.77;4.67;;;;;;;29.83;36.13;98952.53;7003693;28;20218;-81
2022/08/30 08:06:07;;;;;;;4.50;4.10;;;;;;;30.22;35.97;98969.88;7006160;28;20265;-80
2022/08/30 08:09:30;;;;;;;6.80;4.67;;;;;;;30.65;35.60;98961.47;7011263;28;20208;-80
2022/08/30 08:12:52;;;;;;;4.60;4.20;;;;;;;31.27;33.75;98957.81;7013132;28;20356;-81
2022/08/30 08:16:13;;;;;;;5.30;4.80;;;;;;;31.54;33.90;98948.94;7010322;28;20224;-80
2022/08/30 08:19:35;;;;;;;5.97;4.50;;;;;;;30.64;34.96;98960.66;7020463;28;20228;-80
2022/08/30 08:22:56;;;;;;;6.83;5.00;;;;;;;29.84;36.52;98940.25;7031717;28;20203;-80
2022/08/30 08:26:20;;;;;;;7.63;5.23;;;;;;;29.81;36.43;98972.31;7026642;28;20226;-80
2022/08/30 08:29:42;;;;;;;7.10;4.97;;;;;;;29.25;38.02;98955.66;7003242;28;20247;-80
2022/08/30 08:33:04;;;;;;;5.00;4.60;;;;;;;28.49;39.36;98966.41;7004284;28;20250;-80
2022/08/30 08:36:29;;;;;;;7.73;5.30;;;;;;;28.24;38.94;98950.41;7027319;28;20251;-80
2022/08/30 08:39:51;;;;;;;6.73;4.60;;;;;;;28.18;40.83;98968.31;7021153;28;20221;-80
2022/08/30 08:43:16;;;;;;;5.50;5.00;;;;;;;27.83;40.67;98960.84;7031305;28;20231;-81
2022/08/30 08:46:42;;;;;;;8.87;5.00;;;;;;;28.86;39.15;98940.97;7032376;28;20221;-79
2022/08/30 08:50:07;;;;;;;6.10;4.87;;;;;;;28.49;39.37;98953.34;7031074;28;20290;-81
2022/08/30 08:53:34;;;;;;;7.40;5.07;;;;;;;28.74;39.97;98960.19;7030983;28;20251;-79
2022/08/30 08:56:56;;;;;;;9.30;5.40;;;;;;;28.91;39.13;98949.94;7030676;28;20231;-79
2022/08/30 09:00:19;;;;;;;7.43;5.33;;;;;;;29.94;38.14;98948.25;7012803;28;20214;-79
2022/08/30 09:03:41;;;;;;;6.87;5.50;;;;;;;29.91;37.73;98940.59;7014262;28;20216;-79
2022/08/30 09:07:06;;;;;;;6.40;5.70;;;;;;;29.70;38.30;98945.97;7001389;28;20724;-79
2022/08/30 09:10:28;;;;;;;5.23;4.60;;;;;;;30.36;37.44;98937.13;7004923;28;20301;-79
2022/08/30 09:13:50;;;;;;;6.07;5.30;;;;;;;30.84;36.76;98939.66;7001879;28;20234;-79
2022/08/30 09:17:15;;;;;;;5.73;4.67;;;;;;;31.29;35.81;98933.22;7013676;28;20234;-79
2022/08/30 09:20:40;;;;;;;6.70;5.13;;;;;;;30.72;35.65;98951.47;7032652;28;20203;-78
2022/08/30 09:24:06;;;;;;;5.40;4.90;;;;;;;29.55;37.01;98931.75;7029427;28;20290;-79
2022/08/30 09:27:31;;;;;;;5.70;4.90;;;;;;;30.93;36.15;98929.25;7023794;28;20215;-80
2022/08/30 09:31:04;;;;;;;6.30;4.90;;;;;;;31.79;34.13;98914.50;7028808;28;20271;-79
2022/08/30 09:34:32;;;;;;;6.17;5.53;;;;;;;31.96;34.55;98922.72;7028146;28;20648;-80
2022/08/30 09:37:56;;;;;;;6.77;5.30;;;;;;;32.83;32.51;98930.75;7006184;28;20257;-80
2022/08/30 09:41:31;;;;;;;5.67;5.17;;;;;;;31.26;35.24;98916.34;7005895;28;20197;-79
2022/08/30 09:45:09;;;;;;;6.53;5.27;;;;;;;30.43;36.86;98904.03;7005734;28;20235;-79
2022/08/30 09:48:32;;;;;;;6.33;5.40;;;;;;;30.49;36.74;98902.72;7005826;28;20192;-80
2022/08/30 09:52:11;;;;;;;5.40;4.70;;;;;;;32.60;33.08;98898.00;7009029;28;20224;-79
2022/08/30 09:55:43;;;;;;;4.83;4.40;;;;;;;33.69;31.13;98899.59;7010231;28;20261;-79
2022/08/30 09:59:11;;;;;;;6.87;5.27;;;;;;;32.44;32.34;98888.63;7004660;28;20226;-79
2022/08/30 10:02:43;;;;;;;6.23;4.80;;;;;;;32.03;33.14;98867.22;7005442;28;20270;-79
2022/08/30 10:06:10;;;;;;;4.90;4.50;;;;;;;32.97;32.12;98896.88;7006248;28;20260;-79
2022/08/30 10:09:40;;;;;;;5.27;4.37;;;;;;;33.68;30.41;98886.78;7004933;28;20209;-79
2022/08/30 10:13:11;;;;;;;6.47;4.67;;;;;;;32.31;32.44;98887.78;7023899;28;20226;-78
2022/08/30 10:16:42;;;;;;;5.30;4.77;;;;;;;32.10;31.48;98881.41;7033274;28;20365;-77
2022/08/30 10:20:11;;;;;;;4.80;4.30;;;;;;;32.64;32.54;98882.97;7032336;28;20300;-78
2022/08/30 10:23:36;;;;;;;7.50;4.80;;;;;;;32.75;32.25;98878.56;7033328;28;20272;-79
2022/08/30 10:27:04;;;;;;;5.53;4.83;;;;;;;33.26;31.70;98868.69;7007775;28;20834;-79
2022/08/30 10:30:25;;;;;;;5.67;5.17;;;;;;;32.43;32.06;98859.91;7008097;28;20291;-78
2022/08/30 10:33:51;;;;;;;6.27;4.80;;;;;;;32.68;31.42;98857.97;7011388;28;20228;-78
2022/08/30 10:37:15;;;;;;;5.50;4.87;;;;;;;32.24;33.33;98856.84;7002764;28;20729;-79
2022/08/30 10:44:23;;;;;;;4.93;4.43;;;;;;;32.91;31.79;98842.41;7031525;28;20296;-77
2022/08/30 10:47:48;;;;;;;4.83;4.40;;;;;;;32.70;32.05;98847.25;7027501;28;20735;-78
2022/08/30 10:51:15;;;;;;;4.57;4.17;;;;;;;34.16;28.83;98836.25;7032593;28;20610;-79
2022/08/30 10:54:41;;;;;;;4.90;4.50;;;;;;;33.43;30.42;98840.50;7020148;28;20239;-79
2022/08/30 10:58:04;;;;;;;5.93;5.03;;;;;;;34.59;29.02;98850.22;7028581;28;20294;-79
2022/08/30 11:01:41;;;;;;;7.60;5.27;;;;;;;32.84;30.51;98812.25;7030640;28;20211;-79
2022/08/30 11:05:17;;;;;;;7.17;5.07;;;;;;;33.54;29.86;98848.03;7031857;28;20221;-79
2022/08/30 11:09:05;;;;;;;5.47;4.90;;;;;;;32.72;30.24;98848.53;7030801;28;20227;-79
2022/08/30 11:12:38;;;;;;;4.40;4.00;;;;;;;33.34;29.30;98853.78;7030786;28;20204;-78
2022/08/30 11:16:03;;;;;;;4.40;4.10;;;;;;;32.67;30.93;98840.38;7031520;28;20228;-78
2022/08/30 11:19:28;;;;;;;4.97;4.57;;;;;;;32.96;29.27;98854.13;7031298;28;20236;-79
2022/08/30 11:23:15;;;;;;;6.57;4.80;;;;;;;32.16;30.44;98835.41;7031504;28;20216;-79
2022/08/30 11:27:01;;;;;;;4.93;4.53;;;;;;;32.27;30.67;98842.22;7031806;28;20258;-78
2022/08/30 11:30:50;;;;;;;4.73;4.33;;;;;;;31.52;31.37;98831.41;7030597;28;20194;-79
2022/08/30 11:34:12;;;;;;;5.17;4.37;;;;;;;30.90;32.58;98827.72;7031051;28;20283;-78
2022/08/30 11:37:38;;;;;;;4.83;4.30;;;;;;;31.67;31.24;98841.91;7031278;28;20207;-78
2022/08/30 11:41:07;;;;;;;5.13;4.23;;;;;;;32.34;30.98;98842.44;7031237;28;20206;-79
2022/08/30 11:44:31;;;;;;;4.50;4.10;;;;;;;32.60;29.85;98823.38;7031546;28;20287;-79
2022/08/30 11:47:54;;;;;;;5.53;4.60;;;;;;;32.69;30.32;98840.84;7030789;28;20297;-79
2022/08/30 11:51:49;;;;;;;4.60;4.20;;;;;;;33.61;28.63;98839.03;7031369;28;20211;-79
2022/08/30 11:55:31;;;;;;;7.30;4.57;;;;;;;34.15;27.76;98840.22;7031766;28;20259;-79
2022/08/30 11:58:57;;;;;;;4.43;4.03;;;;;;;33.50;28.51;98830.31;7027798;28;20227;-79
2022/08/30 12:02:39;;;;;;;4.60;4.20;;;;;;;33.11;29.35;98847.03;7030790;28;20679;-79
2022/08/30 12:06:03;;;;;;;4.10;3.80;;;;;;;33.15;28.53;98837.63;7038892;28;20727;-79
2022/08/30 12:09:59;;;;;;;4.77;4.20;;;;;;;32.88;28.60;98835.53;7017531;28;20721;-79
2022/08/30 12:13:53;;;;;;;6.20;3.90;;;;;;;33.31;28.48;98832.13;6951635;28;20210;-79
2022/08/30 12:21:05;;;;;;;4.33;4.03;;;;;;;33.12;27.88;98827.13;7013426;28;20191;-79
2022/08/30 12:24:31;;;;;;;4.47;4.07;;;;;;;32.71;28.80;98821.75;7038361;28;20227;-78
2022/08/30 12:28:09;;;;;;;4.60;4.20;;;;;;;33.01;29.00;98816.78;7018869;28;20237;-80
2022/08/30 12:31:32;;;;;;;5.50;4.47;;;;;;;33.29;27.97;98810.13;7018044;28;20211;-80
2022/08/30 12:34:55;;;;;;;4.30;3.77;;;;;;;32.96;28.29;98817.81;7030572;28;20227;-80
2022/08/30 12:38:20;;;;;;;5.27;4.77;;;;;;;32.04;29.24;98810.25;7037636;28;20262;-80
2022/08/30 12:41:43;;;;;;;6.57;4.33;;;;;;;33.11;28.73;98828.28;7031305;28;20270;-80
2022/08/30 12:45:09;;;;;;;4.40;4.00;;;;;;;33.50;27.86;98802.34;7028586;28;20228;-80
2022/08/30 12:48:35;;;;;;;6.50;4.20;;;;;;;34.86;26.56;98805.34;7005408;28;20193;-80
2022/08/30 12:52:15;;;;;;;5.20;4.10;;;;;;;35.04;25.86;98784.16;7006860;28;20217;-80
2022/08/30 12:55:51;;;;;;;5.07;4.10;;;;;;;35.87;24.98;98798.44;7009525;28;20249;-80
2022/08/30 12:59:41;;;;;;;4.47;4.07;;;;;;;35.62;25.10;98797.09;7015332;28;20565;-80
2022/08/30 13:03:05;;;;;;;5.47;4.10;;;;;;;34.24;25.85;98802.50;7017709;28;20205;-81
2022/08/30 13:06:42;;;;;;;5.13;4.20;;;;;;;34.29;25.72;98779.84;7008784;28;20374;-80
2022/08/30 13:10:13;;;;;;;5.33;3.70;;;;;;;34.78;25.80;98735.50;7003626;28;20323;-80
2022/08/30 13:13:38;;;;;;;5.33;3.90;;;;;;;35.56;25.60;98781.69;7008425;28;20190;-80
2022/08/30 13:17:10;;;;;;;4.83;4.03;;;;;;;35.61;24.64;98781.41;7008735;28;20275;-80
2022/08/30 13:20:32;;;;;;;4.40;4.00;;;;;;;35.42;24.88;98761.00;7018402;28;20300;-80
2022/08/30 13:23:58;;;;;;;5.97;4.30;;;;;;;35.42;24.97;98767.38;7036385;28;20253;-80
2022/08/30 13:27:20;;;;;;;4.10;3.80;;;;;;;35.39;25.32;98767.31;7034787;28;20192;-80
2022/08/30 13:30:42;;;;;;;4.77;4.33;;;;;;;34.71;25.45;98688.47;7035285;28;20245;-80
2022/08/30 13:34:03;;;;;;;4.20;3.80;;;;;;;34.98;25.06;98732.34;7035631;28;20214;-80
2022/08/30 13:37:25;;;;;;;6.27;4.10;;;;;;;35.06;25.00;98736.09;7035670;28;20208;-80
2022/08/30 13:40:48;;;;;;;4.20;3.80;;;;;;;35.11;25.29;98741.44;7034807;28;20235;-80
2022/08/30 13:44:10;;;;;;;4.10;3.80;;;;;;;35.57;24.30;98723.63;7027928;28;20225;-80
2022/08/30 13:47:31;;;;;;;4.30;3.90;;;;;;;35.35;24.51;98744.00;7006945;28;20610;-80
2022/08/30 13:50:54;;;;;;;4.20;3.80;;;;;;;33.99;25.50;98742.25;7007012;28;20298;-80
2022/08/30 13:54:15;;;;;;;4.33;3.93;;;;;;;34.12;25.96;98734.56;7007117;28;20229;-80
2022/08/30 13:57:38;;;;;;;4.00;3.70;;;;;;;33.44;27.02;98717.09;7007759;28;20691;-80
2022/08/30 14:01:00;;;;;;;4.57;4.20;;;;;;;33.08;27.75;98713.63;7007209;28;20319;-80
2022/08/30 14:04:22;;;;;;;5.00;4.17;;;;;;;33.09;27.29;98732.00;7007097;28;20264;-80
2022/08/30 14:07:43;;;;;;;4.33;3.93;;;;;;;33.15;27.26;98727.78;7006714;28;20285;-80
2022/08/30 14:11:06;;;;;;;6.67;4.00;;;;;;;32.47;27.91;98723.22;7006646;28;20202;-80
2022/08/30 14:14:29;;;;;;;3.83;3.53;;;;;;;33.08;27.64;98714.41;7007131;28;20745;-80
2022/08/30 14:17:50;;;;;;;4.23;3.80;;;;;;;33.78;26.54;98707.28;7006857;28;20212;-80
2022/08/30 14:21:12;;;;;;;4.97;4.13;;;;;;;33.41;27.72;98691.84;7005648;28;20694;-80
2022/08/30 14:24:33;;;;;;;5.30;3.90;;;;;;;34.14;26.69;98705.03;7007722;28;20788;-80
2022/08/30 14:27:55;;;;;;;10.27;4.10;;;;;;;33.99;26.67;98703.06;7005442;28;20206;-80
2022/08/30 14:31:18;;;;;;;4.70;4.30;;;;;;;33.69;27.06;98690.66;7006729;28;20235;-80
2022/08/30 14:34:39;;;;;;;6.77;3.90;;;;;;;34.18;26.77;98696.72;7007230;28;20236;-80
2022/08/30 14:38:01;;;;;;;4.67;3.67;;;;;;;34.48;25.76;98689.53;7006842;28;20698;-80
2022/08/30 14:41:22;;;;;;;9.93;4.20;;;;;;;34.47;25.97;98701.88;7007246;28;20236;-80
2022/08/30 14:44:44;;;;;;;5.17;4.13;;;;;;;34.57;26.06;98699.34;7007116;28;20229;-80
2022/08/30 14:48:08;;;;;;;5.70;4.10;;;;;;;34.69;25.24;98695.59;7014456;28;20207;-81
2022/08/30 14:51:29;;;;;;;4.87;3.87;;;;;;;33.82;26.27;98683.00;7029513;28;20205;-80
2022/08/30 14:54:51;;;;;;;5.00;4.00;;;;;;;34.36;25.88;98689.63;7034751;28;20243;-80
2022/08/30 14:58:16;;;;;;;5.73;4.00;;;;;;;34.01;25.91;98686.72;7035580;28;20235;-80
2022/08/30 15:01:39;;;;;;;4.20;3.80;;;;;;;34.59;25.77;98671.78;7034078;28;20294;-80
2022/08/30 15:05:02;;;;;;;4.47;4.07;;;;;;;33.66;26.83;98680.16;7035661;28;20256;-79
2022/08/30 15:08:23;;;;;;;4.73;4.33;;;;;;;33.15;28.04;98683.06;7041228;28;20204;-80
2022/08/30 15:11:46;;;;;;;5.60;3.90;;;;;;;33.44;27.65;98680.75;7050616;28;20204;-81
2022/08/30 15:15:10;;;;;;;4.77;4.17;;;;;;;34.04;25.77;98683.22;7034957;28;20234;-80
2022/08/30 15:18:31;;;;;;;7.10;5.30;;;;;;;33.79;27.66;98673.34;7032575;28;20241;-81
2022/08/30 15:21:54;;;;;;;8.27;4.53;;;;;;;32.79;28.21;98675.59;7033090;28;20204;-80
2022/08/30 15:25:16;;;;;;;5.60;3.93;;;;;;;32.23;29.59;98676.56;7033185;28;20232;-81
2022/08/30 15:28:37;;;;;;;10.40;6.60;;;;;;;32.27;30.20;98679.50;7032579;28;20243;-80
2022/08/30 15:32:00;;;;;;;13.00;6.23;;;;;;;33.14;28.78;98676.66;7032887;28;20317;-80
2022/08/30 15:35:21;;;;;;;9.40;5.83;;;;;;;32.22;29.72;98637.84;7032471;28;20562;-80
2022/08/30 15:38:44;;;;;;;7.17;5.13;;;;;;;33.23;28.69;98662.53;7028364;28;20314;-80
2022/08/30 15:42:06;;;;;;;10.10;5.03;;;;;;;33.45;29.23;98675.97;7023479;28;20229;-80
2022/08/30 15:45:29;;;;;;;5.00;4.50;;;;;;;32.73;29.38;98663.03;7032232;28;20260;-80
2022/08/30 15:48:54;;;;;;;4.83;4.43;;;;;;;33.36;28.34;98659.38;7007296;28;20205;-80
2022/08/30 15:52:15;;;;;;;4.40;4.10;;;;;;;33.53;28.53;98667.44;7005106;28;20560;-81
2022/08/30 15:55:38;;;;;;;4.70;4.30;;;;;;;33.14;29.81;98659.09;7005342;28;20233;-80
2022/08/30 15:59:00;;;;;;;5.10;4.60;;;;;;;32.54;28.97;98670.44;7004280;28;20721;-81
2022/08/30 16:02:22;;;;;;;4.53;3.90;;;;;;;32.72;28.81;98647.44;7004805;28;20289;-81
2022/08/30 16:05:43;;;;;;;4.90;4.50;;;;;;;33.01;28.61;98655.53;7004736;28;20218;-81
2022/08/30 16:09:06;;;;;;;4.60;4.30;;;;;;;33.13;29.14;98657.47;7004845;28;20228;-81
2022/08/30 16:12:29;;;;;;;5.67;4.37;;;;;;;33.09;29.01;98667.72;7005503;28;20209;-80